sensor_id;sensor_type;location;lat;lon;timestamp;pressure;altitude;pressure_sealevel;temperature;humidity
11343;BME280;5726;42.160;24.746;2023-04-30T00:00:05;99257.25;;;17.26;66.15
11343;BME280;5726;42.160;24.746;2023-04-30T00:02:33;99256.88;;;17.16;66.58
11343;BME280;5726;42.160;24.746;2023-04-30T00:04:59;99250.00;;;17.18;67.13
11343;BME280;5726;42.160;24.746;2023-04-30T00:07:24;99250.16;;;17.33;66.10
11343;BME280;5726;42.160;24.746;2023-04-30T00:09:49;99253.22;;;17.00;67.81
11343;BME280;5726;42.160;24.746;2023-04-30T00:12:15;99247.44;;;16.89;68.86
11343;BME280;5726;42.160;24.746;2023-04-30T00:14:41;99250.59;;;16.79;69.24
11343;BME280;5726;42.160;24.746;2023-04-30T00:17:06;99248.97;;;16.99;69.05
11343;BME280;5726;42.160;24.746;2023-04-30T00:19:32;99240.91;;;16.90;69.23
11343;BME280;5726;42.160;24.746;2023-04-30T00:21:57;99251.34;;;17.00;69.02
11343;BME280;5726;42.160;24.746;2023-04-30T00:24:26;99249.50;;;17.04;68.91
11343;BME280;5726;42.160;24.746;2023-04-30T00:26:51;99251.34;;;17.12;68.71
11343;BME280;5726;42.160;24.746;2023-04-30T00:29:17;99256.44;;;17.14;68.69
11343;BME280;5726;42.160;24.746;2023-04-30T00:31:42;99253.97;;;17.21;68.33
11343;BME280;5726;42.160;24.746;2023-04-30T00:34:07;99257.78;;;17.20;68.45
11343;BME280;5726;42.160;24.746;2023-04-30T00:36:33;99256.00;;;17.23;68.42
11343;BME280;5726;42.160;24.746;2023-04-30T00:38:58;99257.38;;;17.29;68.21
11343;BME280;5726;42.160;24.746;2023-04-30T00:41:24;99251.59;;;17.43;67.65
11343;BME280;5726;42.160;24.746;2023-04-30T00:43:50;99256.59;;;17.29;67.61
11343;BME280;5726;42.160;24.746;2023-04-30T00:46:15;99273.63;;;17.29;66.64
11343;BME280;5726;42.160;24.746;2023-04-30T00:48:40;99251.75;;;17.34;66.29
11343;BME280;5726;42.160;24.746;2023-04-30T00:51:06;99251.16;;;17.41;66.27
11343;BME280;5726;42.160;24.746;2023-04-30T00:53:32;99253.63;;;17.34;67.03
11343;BME280;5726;42.160;24.746;2023-04-30T00:55:58;99247.78;;;17.44;67.22
11343;BME280;5726;42.160;24.746;2023-04-30T00:58:24;99241.09;;;17.41;67.26
11343;BME280;5726;42.160;24.746;2023-04-30T01:00:50;99242.94;;;17.49;66.96
11343;BME280;5726;42.160;24.746;2023-04-30T01:03:16;99240.56;;;17.36;65.43
11343;BME280;5726;42.160;24.746;2023-04-30T01:05:41;99234.81;;;17.25;65.44
11343;BME280;5726;42.160;24.746;2023-04-30T01:08:07;99242.44;;;17.23;66.05
11343;BME280;5726;42.160;24.746;2023-04-30T01:10:40;99239.59;;;17.20;65.86
11343;BME280;5726;42.160;24.746;2023-04-30T01:13:16;99240.09;;;17.22;65.82
11343;BME280;5726;42.160;24.746;2023-04-30T01:15:58;99239.88;;;17.39;63.51
11343;BME280;5726;42.160;24.746;2023-04-30T01:18:28;99242.31;;;17.08;65.14
11343;BME280;5726;42.160;24.746;2023-04-30T01:21:00;99243.28;;;16.92;66.30
11343;BME280;5726;42.160;24.746;2023-04-30T01:23:34;99242.19;;;16.93;64.97
11343;BME280;5726;42.160;24.746;2023-04-30T01:28:34;99241.84;;;16.94;64.34
11343;BME280;5726;42.160;24.746;2023-04-30T01:31:00;99243.19;;;16.88;61.68
11343;BME280;5726;42.160;24.746;2023-04-30T01:33:25;99232.91;;;16.94;61.45
11343;BME280;5726;42.160;24.746;2023-04-30T01:36:09;99242.63;;;16.63;60.10
11343;BME280;5726;42.160;24.746;2023-04-30T01:42:08;99240.56;;;16.48;61.59
11343;BME280;5726;42.160;24.746;2023-04-30T01:44:53;99240.19;;;16.70;59.34
11343;BME280;5726;42.160;24.746;2023-04-30T01:52:58;99233.84;;;16.13;56.90
11343;BME280;5726;42.160;24.746;2023-04-30T01:55:41;99234.91;;;16.41;56.15
11343;BME280;5726;42.160;24.746;2023-04-30T01:58:12;99238.53;;;16.45;56.28
11343;BME280;5726;42.160;24.746;2023-04-30T02:00:39;99222.09;;;16.50;56.01
11343;BME280;5726;42.160;24.746;2023-04-30T02:03:05;99224.09;;;16.41;56.15
11343;BME280;5726;42.160;24.746;2023-04-30T02:05:30;99222.75;;;16.47;56.17
11343;BME280;5726;42.160;24.746;2023-04-30T02:07:56;99221.44;;;16.53;56.08
11343;BME280;5726;42.160;24.746;2023-04-30T02:10:23;99232.78;;;16.46;56.79
11343;BME280;5726;42.160;24.746;2023-04-30T02:12:49;99234.09;;;16.40;57.08
11343;BME280;5726;42.160;24.746;2023-04-30T02:15:14;99232.44;;;16.48;57.09
11343;BME280;5726;42.160;24.746;2023-04-30T02:17:40;99235.84;;;16.57;56.08
11343;BME280;5726;42.160;24.746;2023-04-30T02:20:06;99235.91;;;16.69;56.06
11343;BME280;5726;42.160;24.746;2023-04-30T02:22:32;99238.16;;;16.67;56.33
11343;BME280;5726;42.160;24.746;2023-04-30T02:24:58;99241.56;;;16.75;56.45
11343;BME280;5726;42.160;24.746;2023-04-30T02:27:24;99234.91;;;16.85;56.44
11343;BME280;5726;42.160;24.746;2023-04-30T02:29:51;99235.41;;;16.87;58.79
11343;BME280;5726;42.160;24.746;2023-04-30T02:32:16;99237.59;;;16.73;58.36
11343;BME280;5726;42.160;24.746;2023-04-30T02:34:42;99243.53;;;16.99;57.35
11343;BME280;5726;42.160;24.746;2023-04-30T02:37:08;99238.22;;;17.02;60.64
11343;BME280;5726;42.160;24.746;2023-04-30T02:39:33;99231.34;;;16.93;63.93
11343;BME280;5726;42.160;24.746;2023-04-30T02:41:59;99232.78;;;16.90;67.09
11343;BME280;5726;42.160;24.746;2023-04-30T02:44:24;99232.88;;;16.82;68.88
11343;BME280;5726;42.160;24.746;2023-04-30T02:46:50;99230.06;;;16.78;70.90
11343;BME280;5726;42.160;24.746;2023-04-30T02:49:15;99226.91;;;16.76;71.94
11343;BME280;5726;42.160;24.746;2023-04-30T02:51:41;99227.03;;;16.80;71.54
11343;BME280;5726;42.160;24.746;2023-04-30T02:54:06;99228.84;;;16.88;71.18
11343;BME280;5726;42.160;24.746;2023-04-30T02:56:32;99225.78;;;16.89;70.35
11343;BME280;5726;42.160;24.746;2023-04-30T02:58:57;99233.25;;;17.04;70.36
11343;BME280;5726;42.160;24.746;2023-04-30T03:01:23;99224.78;;;16.94;70.22
11343;BME280;5726;42.160;24.746;2023-04-30T03:03:48;99228.97;;;16.91;70.88
11343;BME280;5726;42.160;24.746;2023-04-30T03:06:13;99232.19;;;16.73;71.16
11343;BME280;5726;42.160;24.746;2023-04-30T03:08:39;99235.06;;;16.24;73.65
11343;BME280;5726;42.160;24.746;2023-04-30T03:11:04;99234.25;;;16.03;74.87
11343;BME280;5726;42.160;24.746;2023-04-30T03:13:30;99241.03;;;16.09;74.89
11343;BME280;5726;42.160;24.746;2023-04-30T03:15:59;99246.72;;;16.16;74.41
11343;BME280;5726;42.160;24.746;2023-04-30T03:18:27;99245.72;;;16.21;73.15
11343;BME280;5726;42.160;24.746;2023-04-30T03:20:53;99249.50;;;16.28;72.17
11343;BME280;5726;42.160;24.746;2023-04-30T03:23:19;99251.28;;;16.24;71.91
11343;BME280;5726;42.160;24.746;2023-04-30T03:25:44;99245.94;;;16.36;71.63
11343;BME280;5726;42.160;24.746;2023-04-30T03:28:10;99248.91;;;16.43;71.71
11343;BME280;5726;42.160;24.746;2023-04-30T03:30:35;99245.97;;;16.48;72.20
11343;BME280;5726;42.160;24.746;2023-04-30T03:33:01;99258.00;;;16.38;73.76
11343;BME280;5726;42.160;24.746;2023-04-30T03:35:26;99254.44;;;16.46;73.50
11343;BME280;5726;42.160;24.746;2023-04-30T03:37:51;99260.16;;;16.65;72.26
11343;BME280;5726;42.160;24.746;2023-04-30T03:40:17;99267.78;;;16.51;71.97
11343;BME280;5726;42.160;24.746;2023-04-30T03:42:43;99268.91;;;16.30;73.66
11343;BME280;5726;42.160;24.746;2023-04-30T03:45:08;99268.97;;;16.22;73.81
11343;BME280;5726;42.160;24.746;2023-04-30T03:47:34;99272.53;;;16.34;72.60
11343;BME280;5726;42.160;24.746;2023-04-30T03:50:02;99280.03;;;16.49;71.52
11343;BME280;5726;42.160;24.746;2023-04-30T03:52:28;99287.16;;;16.53;71.30
11343;BME280;5726;42.160;24.746;2023-04-30T03:54:53;99280.97;;;16.53;71.14
11343;BME280;5726;42.160;24.746;2023-04-30T03:57:19;99282.03;;;16.60;70.78
11343;BME280;5726;42.160;24.746;2023-04-30T03:59:44;99283.72;;;16.65;71.00
11343;BME280;5726;42.160;24.746;2023-04-30T04:02:10;99284.06;;;16.63;71.65
11343;BME280;5726;42.160;24.746;2023-04-30T04:04:35;99278.31;;;16.65;72.62
11343;BME280;5726;42.160;24.746;2023-04-30T04:07:01;99288.94;;;16.70;73.25
11343;BME280;5726;42.160;24.746;2023-04-30T04:09:28;99283.97;;;16.72;73.47
11343;BME280;5726;42.160;24.746;2023-04-30T04:11:53;99287.81;;;16.71;74.21
11343;BME280;5726;42.160;24.746;2023-04-30T04:14:18;99293.63;;;16.61;75.12
11343;BME280;5726;42.160;24.746;2023-04-30T04:16:44;99302.63;;;16.53;75.63
11343;BME280;5726;42.160;24.746;2023-04-30T04:19:09;99305.50;;;16.48;75.72
11343;BME280;5726;42.160;24.746;2023-04-30T04:21:36;99298.78;;;16.54;75.00
11343;BME280;5726;42.160;24.746;2023-04-30T04:24:02;99295.66;;;16.64;74.11
11343;BME280;5726;42.160;24.746;2023-04-30T04:26:35;99290.09;;;16.80;73.31
11343;BME280;5726;42.160;24.746;2023-04-30T04:29:02;99301.88;;;16.96;71.29
11343;BME280;5726;42.160;24.746;2023-04-30T04:31:28;99301.69;;;16.49;73.97
11343;BME280;5726;42.160;24.746;2023-04-30T04:33:54;99298.81;;;16.05;78.20
11343;BME280;5726;42.160;24.746;2023-04-30T04:36:23;99302.84;;;16.19;77.88
11343;BME280;5726;42.160;24.746;2023-04-30T04:38:51;99295.50;;;16.28;77.77
11343;BME280;5726;42.160;24.746;2023-04-30T04:41:16;99292.25;;;16.34;78.46
11343;BME280;5726;42.160;24.746;2023-04-30T04:43:42;99291.75;;;16.41;77.73
11343;BME280;5726;42.160;24.746;2023-04-30T04:46:08;99296.16;;;16.45;77.15
11343;BME280;5726;42.160;24.746;2023-04-30T04:48:33;99297.50;;;16.72;75.45
11343;BME280;5726;42.160;24.746;2023-04-30T04:50:59;99293.88;;;17.12;71.79
11343;BME280;5726;42.160;24.746;2023-04-30T04:53:25;99295.81;;;17.11;72.46
11343;BME280;5726;42.160;24.746;2023-04-30T04:55:50;99300.84;;;17.33;72.16
11343;BME280;5726;42.160;24.746;2023-04-30T04:58:16;99302.44;;;17.58;70.54
11343;BME280;5726;42.160;24.746;2023-04-30T05:00:42;99312.41;;;17.89;71.24
11343;BME280;5726;42.160;24.746;2023-04-30T05:03:08;99307.84;;;17.81;70.39
11343;BME280;5726;42.160;24.746;2023-04-30T05:05:34;99310.78;;;18.12;67.39
11343;BME280;5726;42.160;24.746;2023-04-30T05:07:59;99313.25;;;18.29;68.11
11343;BME280;5726;42.160;24.746;2023-04-30T05:10:25;99312.59;;;18.86;63.65
11343;BME280;5726;42.160;24.746;2023-04-30T05:12:50;99311.75;;;19.56;61.97
11343;BME280;5726;42.160;24.746;2023-04-30T05:15:16;99316.47;;;20.05;59.19
11343;BME280;5726;42.160;24.746;2023-04-30T05:17:41;99306.56;;;20.50;56.35
11343;BME280;5726;42.160;24.746;2023-04-30T05:20:07;99312.47;;;20.70;55.06
11343;BME280;5726;42.160;24.746;2023-04-30T05:22:33;99316.00;;;20.90;53.67
11343;BME280;5726;42.160;24.746;2023-04-30T05:24:58;99319.38;;;21.24;51.95
11343;BME280;5726;42.160;24.746;2023-04-30T05:27:24;99317.81;;;21.46;50.91
11343;BME280;5726;42.160;24.746;2023-04-30T05:29:50;99318.25;;;21.70;50.23
11343;BME280;5726;42.160;24.746;2023-04-30T05:32:15;99314.31;;;21.67;50.94
11343;BME280;5726;42.160;24.746;2023-04-30T05:34:41;99316.22;;;21.89;51.59
11343;BME280;5726;42.160;24.746;2023-04-30T05:37:06;99309.59;;;22.16;50.02
11343;BME280;5726;42.160;24.746;2023-04-30T05:39:32;99320.91;;;22.14;49.33
11343;BME280;5726;42.160;24.746;2023-04-30T05:41:57;99314.56;;;22.33;48.86
11343;BME280;5726;42.160;24.746;2023-04-30T05:44:22;99311.75;;;22.04;48.32
11343;BME280;5726;42.160;24.746;2023-04-30T05:46:48;99312.22;;;21.83;49.98
11343;BME280;5726;42.160;24.746;2023-04-30T05:49:13;99323.66;;;22.18;49.81
11343;BME280;5726;42.160;24.746;2023-04-30T05:51:39;99313.06;;;22.39;49.38
11343;BME280;5726;42.160;24.746;2023-04-30T05:54:04;99320.19;;;22.47;49.29
11343;BME280;5726;42.160;24.746;2023-04-30T05:56:30;99313.69;;;22.55;49.40
11343;BME280;5726;42.160;24.746;2023-04-30T05:58:55;99323.69;;;22.76;48.65
11343;BME280;5726;42.160;24.746;2023-04-30T06:01:21;99316.28;;;22.44;48.43
11343;BME280;5726;42.160;24.746;2023-04-30T06:03:47;99322.13;;;22.43;47.82
11343;BME280;5726;42.160;24.746;2023-04-30T06:06:13;99323.31;;;22.78;45.77
11343;BME280;5726;42.160;24.746;2023-04-30T06:08:38;99324.38;;;22.11;48.13
11343;BME280;5726;42.160;24.746;2023-04-30T06:11:08;99330.72;;;22.19;48.12
11343;BME280;5726;42.160;24.746;2023-04-30T06:13:35;99322.38;;;22.34;47.33
11343;BME280;5726;42.160;24.746;2023-04-30T06:16:00;99329.09;;;21.66;47.29
11343;BME280;5726;42.160;24.746;2023-04-30T06:18:26;99324.91;;;21.50;49.06
11343;BME280;5726;42.160;24.746;2023-04-30T06:20:51;99331.75;;;21.85;50.03
11343;BME280;5726;42.160;24.746;2023-04-30T06:23:17;99323.56;;;22.11;49.95
11343;BME280;5726;42.160;24.746;2023-04-30T06:25:42;99325.72;;;22.50;48.45
11343;BME280;5726;42.160;24.746;2023-04-30T06:28:08;99322.94;;;22.76;47.38
11343;BME280;5726;42.160;24.746;2023-04-30T06:30:35;99323.50;;;22.59;47.25
11343;BME280;5726;42.160;24.746;2023-04-30T06:33:00;99326.59;;;22.58;48.36
11343;BME280;5726;42.160;24.746;2023-04-30T06:35:26;99328.84;;;22.81;47.89
11343;BME280;5726;42.160;24.746;2023-04-30T06:37:51;99317.69;;;22.35;48.51
11343;BME280;5726;42.160;24.746;2023-04-30T06:40:16;99319.53;;;22.27;51.01
11343;BME280;5726;42.160;24.746;2023-04-30T06:42:42;99322.81;;;22.98;48.33
11343;BME280;5726;42.160;24.746;2023-04-30T06:45:08;99324.94;;;23.51;48.00
11343;BME280;5726;42.160;24.746;2023-04-30T06:47:34;99323.00;;;23.52;47.64
11343;BME280;5726;42.160;24.746;2023-04-30T06:50:02;99317.09;;;23.10;48.32
11343;BME280;5726;42.160;24.746;2023-04-30T06:52:29;99320.44;;;23.33;48.74
11343;BME280;5726;42.160;24.746;2023-04-30T06:54:54;99313.53;;;23.85;45.71
11343;BME280;5726;42.160;24.746;2023-04-30T06:57:20;99316.38;;;24.02;45.09
11343;BME280;5726;42.160;24.746;2023-04-30T06:59:45;99316.09;;;23.64;45.00
11343;BME280;5726;42.160;24.746;2023-04-30T07:02:11;99311.19;;;23.44;44.89
11343;BME280;5726;42.160;24.746;2023-04-30T07:04:36;99313.94;;;23.87;45.82
11343;BME280;5726;42.160;24.746;2023-04-30T07:07:01;99305.78;;;23.94;44.45
11343;BME280;5726;42.160;24.746;2023-04-30T07:09:30;99310.28;;;23.69;44.83
11343;BME280;5726;42.160;24.746;2023-04-30T07:11:58;99309.59;;;23.86;43.65
11343;BME280;5726;42.160;24.746;2023-04-30T07:14:24;99308.00;;;23.39;44.47
11343;BME280;5726;42.160;24.746;2023-04-30T07:16:49;99309.66;;;23.47;43.64
11343;BME280;5726;42.160;24.746;2023-04-30T07:19:15;99321.63;;;23.71;43.50
11343;BME280;5726;42.160;24.746;2023-04-30T07:21:40;99308.94;;;23.56;43.13
11343;BME280;5726;42.160;24.746;2023-04-30T07:24:06;99299.66;;;23.25;44.79
11343;BME280;5726;42.160;24.746;2023-04-30T07:26:31;99306.56;;;22.79;46.40
11343;BME280;5726;42.160;24.746;2023-04-30T07:28:56;99305.81;;;23.15;45.72
11343;BME280;5726;42.160;24.746;2023-04-30T07:31:22;99299.00;;;23.38;44.55
11343;BME280;5726;42.160;24.746;2023-04-30T07:33:47;99314.38;;;23.50;44.65
11343;BME280;5726;42.160;24.746;2023-04-30T07:36:15;99301.00;;;23.41;44.34
11343;BME280;5726;42.160;24.746;2023-04-30T07:38:41;99297.31;;;23.27;43.92
11343;BME280;5726;42.160;24.746;2023-04-30T07:41:06;99307.63;;;23.80;42.86
11343;BME280;5726;42.160;24.746;2023-04-30T07:43:34;99307.06;;;24.10;41.16
11343;BME280;5726;42.160;24.746;2023-04-30T07:46:00;99309.22;;;24.41;40.01
11343;BME280;5726;42.160;24.746;2023-04-30T07:48:25;99308.84;;;24.43;40.30
11343;BME280;5726;42.160;24.746;2023-04-30T07:50:51;99304.22;;;24.57;39.94
11343;BME280;5726;42.160;24.746;2023-04-30T07:53:16;99309.75;;;24.07;40.17
11343;BME280;5726;42.160;24.746;2023-04-30T07:55:42;99305.72;;;23.87;41.79
11343;BME280;5726;42.160;24.746;2023-04-30T07:58:07;99301.19;;;24.12;41.20
11343;BME280;5726;42.160;24.746;2023-04-30T08:00:33;99297.84;;;24.36;40.25
11343;BME280;5726;42.160;24.746;2023-04-30T08:02:58;99300.22;;;24.44;40.19
11343;BME280;5726;42.160;24.746;2023-04-30T08:05:25;99308.22;;;24.09;41.56
11343;BME280;5726;42.160;24.746;2023-04-30T08:07:51;99303.28;;;23.75;42.55
11343;BME280;5726;42.160;24.746;2023-04-30T08:10:16;99288.97;;;23.99;41.39
11343;BME280;5726;42.160;24.746;2023-04-30T08:12:42;99298.19;;;23.77;40.51
11343;BME280;5726;42.160;24.746;2023-04-30T08:15:07;99301.84;;;23.49;41.31
11343;BME280;5726;42.160;24.746;2023-04-30T08:17:33;99295.03;;;23.72;41.27
11343;BME280;5726;42.160;24.746;2023-04-30T08:19:59;99291.47;;;24.18;40.09
11343;BME280;5726;42.160;24.746;2023-04-30T08:22:25;99286.81;;;24.25;39.57
11343;BME280;5726;42.160;24.746;2023-04-30T08:24:51;99285.09;;;24.74;38.51
11343;BME280;5726;42.160;24.746;2023-04-30T08:27:16;99276.53;;;24.97;37.92
11343;BME280;5726;42.160;24.746;2023-04-30T08:29:42;99276.59;;;25.10;38.33
11343;BME280;5726;42.160;24.746;2023-04-30T08:32:07;99279.28;;;24.97;37.34
11343;BME280;5726;42.160;24.746;2023-04-30T08:34:33;99282.00;;;24.86;38.03
11343;BME280;5726;42.160;24.746;2023-04-30T08:36:59;99280.13;;;25.18;37.49
11343;BME280;5726;42.160;24.746;2023-04-30T08:39:25;99271.00;;;24.83;38.07
11343;BME280;5726;42.160;24.746;2023-04-30T08:41:54;99265.47;;;24.72;38.46
11343;BME280;5726;42.160;24.746;2023-04-30T08:44:26;99269.13;;;25.11;38.02
11343;BME280;5726;42.160;24.746;2023-04-30T08:46:53;99265.66;;;25.31;37.25
11343;BME280;5726;42.160;24.746;2023-04-30T08:49:20;99270.63;;;24.91;37.75
11343;BME280;5726;42.160;24.746;2023-04-30T08:51:45;99270.34;;;25.24;37.31
11343;BME280;5726;42.160;24.746;2023-04-30T08:54:12;99263.69;;;25.52;36.71
11343;BME280;5726;42.160;24.746;2023-04-30T08:56:39;99269.97;;;25.60;36.33
11343;BME280;5726;42.160;24.746;2023-04-30T08:59:05;99258.19;;;25.32;35.57
11343;BME280;5726;42.160;24.746;2023-04-30T09:01:30;99258.59;;;25.34;34.16
11343;BME280;5726;42.160;24.746;2023-04-30T09:03:56;99258.19;;;25.18;34.64
11343;BME280;5726;42.160;24.746;2023-04-30T09:06:21;99254.19;;;24.91;35.90
11343;BME280;5726;42.160;24.746;2023-04-30T09:08:48;99248.75;;;25.12;35.38
11343;BME280;5726;42.160;24.746;2023-04-30T09:11:28;99236.94;;;24.94;35.13
11343;BME280;5726;42.160;24.746;2023-04-30T09:13:56;99241.50;;;24.49;35.00
11343;BME280;5726;42.160;24.746;2023-04-30T09:16:23;99243.94;;;24.67;35.65
11343;BME280;5726;42.160;24.746;2023-04-30T09:18:49;99247.44;;;24.68;35.61
11343;BME280;5726;42.160;24.746;2023-04-30T09:21:15;99233.72;;;24.61;35.39
11343;BME280;5726;42.160;24.746;2023-04-30T09:23:56;99240.72;;;24.48;35.68
11343;BME280;5726;42.160;24.746;2023-04-30T09:26:29;99248.94;;;24.45;36.52
11343;BME280;5726;42.160;24.746;2023-04-30T09:28:56;99245.69;;;24.25;36.43
11343;BME280;5726;42.160;24.746;2023-04-30T09:31:23;99240.22;;;24.32;36.02
11343;BME280;5726;42.160;24.746;2023-04-30T09:33:49;99241.28;;;23.53;34.34
11343;BME280;5726;42.160;24.746;2023-04-30T09:36:14;99237.31;;;23.94;35.40
11343;BME280;5726;42.160;24.746;2023-04-30T09:38:40;99233.88;;;23.57;36.60
11343;BME280;5726;42.160;24.746;2023-04-30T09:41:06;99225.91;;;23.92;36.70
11343;BME280;5726;42.160;24.746;2023-04-30T09:43:45;99223.50;;;23.80;35.85
11343;BME280;5726;42.160;24.746;2023-04-30T09:46:10;99215.31;;;23.84;35.48
11343;BME280;5726;42.160;24.746;2023-04-30T09:48:40;99219.44;;;24.21;35.94
11343;BME280;5726;42.160;24.746;2023-04-30T09:51:05;99213.34;;;24.62;34.67
11343;BME280;5726;42.160;24.746;2023-04-30T09:53:32;99210.13;;;24.36;34.74
11343;BME280;5726;42.160;24.746;2023-04-30T09:56:00;99207.34;;;24.32;34.82
11343;BME280;5726;42.160;24.746;2023-04-30T09:58:27;99204.59;;;24.29;33.92
11343;BME280;5726;42.160;24.746;2023-04-30T10:00:53;99200.34;;;24.35;35.13
11343;BME280;5726;42.160;24.746;2023-04-30T10:03:21;99197.53;;;24.21;34.80
11343;BME280;5726;42.160;24.746;2023-04-30T10:05:50;99205.47;;;24.50;34.20
11343;BME280;5726;42.160;24.746;2023-04-30T10:08:27;99200.66;;;24.23;34.49
11343;BME280;5726;42.160;24.746;2023-04-30T10:11:03;99207.00;;;24.41;34.90
11343;BME280;5726;42.160;24.746;2023-04-30T10:13:39;99203.94;;;24.56;33.73
11343;BME280;5726;42.160;24.746;2023-04-30T10:16:11;99192.97;;;24.49;34.09
11343;BME280;5726;42.160;24.746;2023-04-30T10:18:45;99190.59;;;24.54;35.12
11343;BME280;5726;42.160;24.746;2023-04-30T10:21:15;99191.84;;;24.81;34.64
11343;BME280;5726;42.160;24.746;2023-04-30T10:23:43;99182.81;;;24.74;34.93
11343;BME280;5726;42.160;24.746;2023-04-30T10:26:09;99186.66;;;24.49;34.83
11343;BME280;5726;42.160;24.746;2023-04-30T10:28:38;99189.44;;;24.55;35.13
11343;BME280;5726;42.160;24.746;2023-04-30T10:31:06;99183.59;;;24.71;35.23
11343;BME280;5726;42.160;24.746;2023-04-30T10:33:43;99182.84;;;24.84;35.39
11343;BME280;5726;42.160;24.746;2023-04-30T10:36:20;99189.03;;;24.43;35.72
11343;BME280;5726;42.160;24.746;2023-04-30T10:38:47;99185.91;;;24.45;36.29
11343;BME280;5726;42.160;24.746;2023-04-30T10:41:13;99176.94;;;24.72;35.12
11343;BME280;5726;42.160;24.746;2023-04-30T10:43:39;99170.28;;;24.80;36.01
11343;BME280;5726;42.160;24.746;2023-04-30T10:46:07;99178.09;;;24.57;36.14
11343;BME280;5726;42.160;24.746;2023-04-30T10:48:33;99172.56;;;24.47;36.17
11343;BME280;5726;42.160;24.746;2023-04-30T10:51:00;99171.44;;;24.61;34.98
11343;BME280;5726;42.160;24.746;2023-04-30T10:53:29;99176.16;;;24.64;35.18
11343;BME280;5726;42.160;24.746;2023-04-30T10:56:00;99176.47;;;24.46;35.17
11343;BME280;5726;42.160;24.746;2023-04-30T10:58:36;99168.25;;;24.39;35.11
11343;BME280;5726;42.160;24.746;2023-04-30T11:03:35;99163.97;;;24.45;37.28
11343;BME280;5726;42.160;24.746;2023-04-30T11:06:12;99164.72;;;24.35;36.34
11343;BME280;5726;42.160;24.746;2023-04-30T11:08:42;99168.56;;;24.27;37.13
11343;BME280;5726;42.160;24.746;2023-04-30T11:11:09;99163.56;;;24.53;37.32
11343;BME280;5726;42.160;24.746;2023-04-30T11:13:47;99168.78;;;23.84;36.85
11343;BME280;5726;42.160;24.746;2023-04-30T11:16:15;99172.59;;;23.72;37.16
11343;BME280;5726;42.160;24.746;2023-04-30T11:18:46;99163.75;;;23.96;37.66
11343;BME280;5726;42.160;24.746;2023-04-30T11:21:12;99161.38;;;23.98;37.38
11343;BME280;5726;42.160;24.746;2023-04-30T11:23:42;99157.81;;;23.87;36.99
11343;BME280;5726;42.160;24.746;2023-04-30T11:26:08;99162.50;;;23.83;36.73
11343;BME280;5726;42.160;24.746;2023-04-30T11:28:35;99151.56;;;23.87;36.78
11343;BME280;5726;42.160;24.746;2023-04-30T11:31:02;99141.91;;;24.17;38.38
11343;BME280;5726;42.160;24.746;2023-04-30T11:33:29;99143.63;;;24.49;38.27
11343;BME280;5726;42.160;24.746;2023-04-30T11:35:56;99139.75;;;24.92;36.67
11343;BME280;5726;42.160;24.746;2023-04-30T11:40:51;99131.53;;;25.19;35.54
11343;BME280;5726;42.160;24.746;2023-04-30T11:43:25;99128.41;;;24.97;35.13
11343;BME280;5726;42.160;24.746;2023-04-30T11:46:11;99127.97;;;24.74;35.24
11343;BME280;5726;42.160;24.746;2023-04-30T11:48:39;99130.00;;;25.22;34.35
11343;BME280;5726;42.160;24.746;2023-04-30T11:51:19;99135.06;;;25.06;33.60
11343;BME280;5726;42.160;24.746;2023-04-30T11:53:45;99128.78;;;24.85;34.35
11343;BME280;5726;42.160;24.746;2023-04-30T11:56:11;99127.25;;;25.04;34.05
11343;BME280;5726;42.160;24.746;2023-04-30T11:58:37;99125.28;;;25.22;34.06
11343;BME280;5726;42.160;24.746;2023-04-30T12:01:05;99124.47;;;24.98;34.30
11343;BME280;5726;42.160;24.746;2023-04-30T12:03:39;99117.44;;;25.07;34.62
11343;BME280;5726;42.160;24.746;2023-04-30T12:06:05;99106.06;;;25.22;34.44
11343;BME280;5726;42.160;24.746;2023-04-30T12:08:30;99106.06;;;25.05;35.91
11343;BME280;5726;42.160;24.746;2023-04-30T12:10:56;99104.84;;;24.61;35.22
11343;BME280;5726;42.160;24.746;2023-04-30T12:13:21;99105.25;;;24.59;36.00
11343;BME280;5726;42.160;24.746;2023-04-30T12:16:05;99100.16;;;24.61;38.07
11343;BME280;5726;42.160;24.746;2023-04-30T12:18:31;99112.31;;;24.99;35.97
11343;BME280;5726;42.160;24.746;2023-04-30T12:20:57;99104.03;;;24.33;35.50
11343;BME280;5726;42.160;24.746;2023-04-30T12:23:23;99112.25;;;24.33;37.30
11343;BME280;5726;42.160;24.746;2023-04-30T12:25:49;99113.03;;;24.44;36.30
11343;BME280;5726;42.160;24.746;2023-04-30T12:28:14;99132.22;;;23.59;40.02
11343;BME280;5726;42.160;24.746;2023-04-30T12:30:41;99145.38;;;22.54;44.82
11343;BME280;5726;42.160;24.746;2023-04-30T12:33:09;99160.38;;;21.72;53.92
11343;BME280;5726;42.160;24.746;2023-04-30T12:35:34;99159.47;;;21.39;53.22
11343;BME280;5726;42.160;24.746;2023-04-30T12:38:07;99171.78;;;21.29;54.06
11343;BME280;5726;42.160;24.746;2023-04-30T12:40:33;99161.75;;;21.11;55.83
11343;BME280;5726;42.160;24.746;2023-04-30T12:43:08;99160.03;;;21.25;51.97
11343;BME280;5726;42.160;24.746;2023-04-30T12:45:45;99157.81;;;21.09;53.46
11343;BME280;5726;42.160;24.746;2023-04-30T12:48:11;99131.22;;;21.02;62.03
11343;BME280;5726;42.160;24.746;2023-04-30T12:50:37;99122.50;;;20.93;56.39
11343;BME280;5726;42.160;24.746;2023-04-30T12:53:06;99127.03;;;20.63;62.06
11343;BME280;5726;42.160;24.746;2023-04-30T12:55:32;99119.28;;;20.65;64.10
11343;BME280;5726;42.160;24.746;2023-04-30T12:58:06;99113.59;;;20.52;66.58
11343;BME280;5726;42.160;24.746;2023-04-30T13:00:51;99102.69;;;20.52;68.64
11343;BME280;5726;42.160;24.746;2023-04-30T13:03:18;99107.41;;;20.55;67.67
11343;BME280;5726;42.160;24.746;2023-04-30T13:05:46;99100.09;;;20.59;67.02
11343;BME280;5726;42.160;24.746;2023-04-30T13:08:13;99098.00;;;20.71;66.40
11343;BME280;5726;42.160;24.746;2023-04-30T13:10:38;99098.59;;;20.83;64.90
11343;BME280;5726;42.160;24.746;2023-04-30T13:13:04;99101.22;;;20.76;61.91
11343;BME280;5726;42.160;24.746;2023-04-30T13:15:29;99115.69;;;20.39;64.43